This is the latest recevied weather packets stored in our database for station/object K7FRY. If no packets are shown the sender has not sent any weather packets the latest 1 day(s).
| Time | Temp. | Humidity | Pressure | Rain* | Wind** | Luminosity | Snow |
|---|---|---|---|---|---|---|---|
| 1778103698 | 25.56° C | 24% | 1015.1 hPa | 0 mm | - | 686 W/m² | - |
| 1778103093 | 26.11° C | 24% | 1015.5 hPa | 0 mm | - | 703 W/m² | - |
| 1778101575 | 25° C | 25% | 1015.8 hPa | 0 mm | - | 712 W/m² | - |
| 1778101271 | 25.56° C | 24% | 1015.8 hPa | 0 mm | - | 730 W/m² | - |
| 1778100058 | 24.44° C | 27% | 1016 hPa | 0 mm | - | 771 W/m² | - |
| 1778097027 | 23.89° C | 27% | 1016.6 hPa | 0 mm | - | 787 W/m² | - |
| 1778096118 | 23.33° C | 27% | 1017.2 hPa | 0 mm | - | 792 W/m² | - |
| 1778093692 | 23.89° C | 28% | 1017.3 hPa | 0 mm | - | 800 W/m² | - |
| 1778091873 | 23.33° C | 30% | 1017.9 hPa | 0 mm | - | 799 W/m² | - |
| 1778091268 | 22.22° C | 29% | 1018 hPa | 0 mm | - | 792 W/m² | - |
| 1778090964 | 22.78° C | 29% | 1018 hPa | 0 mm | - | 768 W/m² | - |
| 1778090358 | 21.67° C | 33% | 1018.1 hPa | 0 mm | - | 780 W/m² | - |
| 1778089449 | 22.78° C | 31% | 1017.9 hPa | 0 mm | - | 763 W/m² | - |
| 1778089146 | 22.22° C | 32% | 1018 hPa | 0 mm | - | 737 W/m² | - |
| 1778088540 | 22.78° C | 32% | 1018.1 hPa | 0 mm | - | 764 W/m² | - |
| 1778087934 | 21.67° C | 34% | 1018 hPa | 0 mm | - | 790 W/m² | - |
| 1778086117 | 21.11° C | 36% | 1017.9 hPa | 0 mm | - | 768 W/m² | - |
| 1778085814 | 20.56° C | 37% | 1018.1 hPa | 0 mm | - | 772 W/m² | - |
| 1778084902 | 20° C | 38% | 1017.9 hPa | 0 mm | - | 796 W/m² | - |
| 1778083692 | 20° C | 39% | 1018 hPa | 0 mm | - | 775 W/m² | - |
| 1778081656 | 18.89° C | 44% | 1017.9 hPa | 0 mm | - | 586 W/m² | - |
| 1778081050 | 18.33° C | 45% | 1017.9 hPa | 0 mm | - | 540 W/m² | - |
| 1778079839 | 17.78° C | 47% | 1017.8 hPa | 0 mm | - | 376 W/m² | - |
| 1778079536 | 17.22° C | 49% | 1017.7 hPa | 0 mm | - | 409 W/m² | - |
| 1778079232 | 16.67° C | 50% | 1017.7 hPa | 0 mm | - | 337 W/m² | - |
* Rain latest hour (hover to see other rain measurements)
** Current wind speed in m/s (hover to see current wind gust speed)